sensor_id;sensor_type;location;lat;lon;timestamp;P1;durP1;ratioP1;P2;durP2;ratioP2
29940;SDS011;16801;53.562;10.038;2023-10-19T00:00:54;7.33;;;4.87;;
29940;SDS011;16801;53.562;10.038;2023-10-19T00:04:16;5.50;;;5.00;;
29940;SDS011;16801;53.562;10.038;2023-10-19T00:07:36;6.27;;;5.47;;
29940;SDS011;16801;53.562;10.038;2023-10-19T00:10:58;5.43;;;4.93;;
29940;SDS011;16801;53.562;10.038;2023-10-19T00:14:24;6.03;;;4.90;;
29940;SDS011;16801;53.562;10.038;2023-10-19T00:17:45;6.20;;;4.57;;
29940;SDS011;16801;53.562;10.038;2023-10-19T00:21:06;5.43;;;4.93;;
29940;SDS011;16801;53.562;10.038;2023-10-19T00:24:31;7.70;;;6.53;;
29940;SDS011;16801;53.562;10.038;2023-10-19T00:27:54;7.03;;;5.90;;
29940;SDS011;16801;53.562;10.038;2023-10-19T00:31:15;8.00;;;6.23;;
29940;SDS011;16801;53.562;10.038;2023-10-19T00:34:39;7.13;;;6.13;;
29940;SDS011;16801;53.562;10.038;2023-10-19T00:38:01;7.80;;;6.20;;
29940;SDS011;16801;53.562;10.038;2023-10-19T00:41:36;5.97;;;5.37;;
29940;SDS011;16801;53.562;10.038;2023-10-19T00:44:58;7.33;;;5.80;;
29940;SDS011;16801;53.562;10.038;2023-10-19T00:48:24;6.00;;;5.07;;
29940;SDS011;16801;53.562;10.038;2023-10-19T00:51:47;7.57;;;6.27;;
29940;SDS011;16801;53.562;10.038;2023-10-19T00:55:21;8.07;;;5.97;;
29940;SDS011;16801;53.562;10.038;2023-10-19T00:58:46;6.10;;;5.50;;
29940;SDS011;16801;53.562;10.038;2023-10-19T01:02:13;8.67;;;6.80;;
29940;SDS011;16801;53.562;10.038;2023-10-19T01:05:39;5.30;;;4.80;;
29940;SDS011;16801;53.562;10.038;2023-10-19T01:09:07;5.97;;;5.17;;
29940;SDS011;16801;53.562;10.038;2023-10-19T01:12:28;7.40;;;6.40;;
29940;SDS011;16801;53.562;10.038;2023-10-19T01:15:58;7.13;;;5.87;;
29940;SDS011;16801;53.562;10.038;2023-10-19T01:19:21;5.70;;;5.13;;
29940;SDS011;16801;53.562;10.038;2023-10-19T01:22:47;6.37;;;5.33;;
29940;SDS011;16801;53.562;10.038;2023-10-19T01:26:10;6.10;;;5.50;;
29940;SDS011;16801;53.562;10.038;2023-10-19T01:29:35;5.93;;;5.43;;
29940;SDS011;16801;53.562;10.038;2023-10-19T01:32:57;9.03;;;6.77;;
29940;SDS011;16801;53.562;10.038;2023-10-19T01:36:18;12.07;;;7.27;;
29940;SDS011;16801;53.562;10.038;2023-10-19T01:39:47;6.60;;;5.30;;
29940;SDS011;16801;53.562;10.038;2023-10-19T01:43:08;7.37;;;6.47;;
29940;SDS011;16801;53.562;10.038;2023-10-19T01:46:30;9.37;;;6.20;;
29940;SDS011;16801;53.562;10.038;2023-10-19T01:49:53;5.20;;;4.47;;
29940;SDS011;16801;53.562;10.038;2023-10-19T01:53:14;6.30;;;5.70;;
29940;SDS011;16801;53.562;10.038;2023-10-19T01:56:36;6.30;;;5.73;;
29940;SDS011;16801;53.562;10.038;2023-10-19T01:59:58;6.10;;;5.60;;
29940;SDS011;16801;53.562;10.038;2023-10-19T02:03:19;6.80;;;6.20;;
29940;SDS011;16801;53.562;10.038;2023-10-19T02:06:40;9.07;;;5.63;;
29940;SDS011;16801;53.562;10.038;2023-10-19T02:10:01;6.53;;;5.73;;
29940;SDS011;16801;53.562;10.038;2023-10-19T02:13:23;6.00;;;5.50;;
29940;SDS011;16801;53.562;10.038;2023-10-19T02:16:45;6.07;;;5.47;;
29940;SDS011;16801;53.562;10.038;2023-10-19T02:20:09;7.00;;;6.17;;
29940;SDS011;16801;53.562;10.038;2023-10-19T02:23:36;6.43;;;5.60;;
29940;SDS011;16801;53.562;10.038;2023-10-19T02:26:58;6.23;;;5.63;;
29940;SDS011;16801;53.562;10.038;2023-10-19T02:30:22;7.07;;;6.37;;
29940;SDS011;16801;53.562;10.038;2023-10-19T02:33:44;6.03;;;5.53;;
29940;SDS011;16801;53.562;10.038;2023-10-19T02:37:05;7.00;;;6.30;;
29940;SDS011;16801;53.562;10.038;2023-10-19T02:40:27;6.40;;;5.77;;
29940;SDS011;16801;53.562;10.038;2023-10-19T02:43:50;9.17;;;6.63;;
29940;SDS011;16801;53.562;10.038;2023-10-19T02:47:22;6.70;;;5.60;;
29940;SDS011;16801;53.562;10.038;2023-10-19T02:50:43;8.93;;;6.20;;
29940;SDS011;16801;53.562;10.038;2023-10-19T02:54:04;6.23;;;5.63;;
29940;SDS011;16801;53.562;10.038;2023-10-19T02:57:26;8.13;;;6.93;;
29940;SDS011;16801;53.562;10.038;2023-10-19T03:00:50;5.87;;;5.30;;
29940;SDS011;16801;53.562;10.038;2023-10-19T03:04:12;9.47;;;6.80;;
29940;SDS011;16801;53.562;10.038;2023-10-19T03:07:34;7.73;;;6.97;;
29940;SDS011;16801;53.562;10.038;2023-10-19T03:10:55;8.90;;;6.77;;
29940;SDS011;16801;53.562;10.038;2023-10-19T03:14:24;8.73;;;6.20;;
29940;SDS011;16801;53.562;10.038;2023-10-19T03:17:45;6.63;;;5.27;;
29940;SDS011;16801;53.562;10.038;2023-10-19T03:21:07;6.77;;;6.07;;
29940;SDS011;16801;53.562;10.038;2023-10-19T03:24:31;6.80;;;6.03;;
29940;SDS011;16801;53.562;10.038;2023-10-19T03:27:56;7.40;;;6.33;;
29940;SDS011;16801;53.562;10.038;2023-10-19T03:31:16;7.80;;;6.80;;
29940;SDS011;16801;53.562;10.038;2023-10-19T03:34:38;7.07;;;6.40;;
29940;SDS011;16801;53.562;10.038;2023-10-19T03:38:05;8.90;;;6.70;;
29940;SDS011;16801;53.562;10.038;2023-10-19T03:41:33;7.37;;;6.43;;
29940;SDS011;16801;53.562;10.038;2023-10-19T03:44:55;7.50;;;6.00;;
29940;SDS011;16801;53.562;10.038;2023-10-19T03:48:17;7.67;;;6.97;;
29940;SDS011;16801;53.562;10.038;2023-10-19T03:51:43;8.37;;;6.70;;
29940;SDS011;16801;53.562;10.038;2023-10-19T03:55:19;7.53;;;6.83;;
29940;SDS011;16801;53.562;10.038;2023-10-19T03:58:43;9.10;;;7.43;;
29940;SDS011;16801;53.562;10.038;2023-10-19T04:02:08;9.63;;;7.33;;
29940;SDS011;16801;53.562;10.038;2023-10-19T04:05:29;10.10;;;9.10;;
29940;SDS011;16801;53.562;10.038;2023-10-19T04:08:54;8.87;;;6.60;;
29940;SDS011;16801;53.562;10.038;2023-10-19T04:12:17;7.93;;;6.40;;
29940;SDS011;16801;53.562;10.038;2023-10-19T04:15:38;7.17;;;6.47;;
29940;SDS011;16801;53.562;10.038;2023-10-19T04:18:59;9.37;;;6.57;;
29940;SDS011;16801;53.562;10.038;2023-10-19T04:22:20;9.53;;;7.83;;
29940;SDS011;16801;53.562;10.038;2023-10-19T04:25:44;7.97;;;7.27;;
29940;SDS011;16801;53.562;10.038;2023-10-19T04:29:07;8.67;;;6.63;;
29940;SDS011;16801;53.562;10.038;2023-10-19T04:32:30;8.73;;;7.70;;
29940;SDS011;16801;53.562;10.038;2023-10-19T04:35:51;7.97;;;7.23;;
29940;SDS011;16801;53.562;10.038;2023-10-19T04:39:15;10.20;;;8.60;;
29940;SDS011;16801;53.562;10.038;2023-10-19T04:42:39;7.43;;;6.23;;
29940;SDS011;16801;53.562;10.038;2023-10-19T04:46:03;11.57;;;7.97;;
29940;SDS011;16801;53.562;10.038;2023-10-19T04:49:27;7.37;;;6.60;;
29940;SDS011;16801;53.562;10.038;2023-10-19T04:52:48;13.77;;;7.93;;
29940;SDS011;16801;53.562;10.038;2023-10-19T04:56:09;9.43;;;7.13;;
29940;SDS011;16801;53.562;10.038;2023-10-19T04:59:31;8.03;;;7.23;;
29940;SDS011;16801;53.562;10.038;2023-10-19T05:02:54;10.60;;;8.27;;
29940;SDS011;16801;53.562;10.038;2023-10-19T05:06:15;8.60;;;6.53;;
29940;SDS011;16801;53.562;10.038;2023-10-19T05:09:37;9.53;;;6.90;;
29940;SDS011;16801;53.562;10.038;2023-10-19T05:12:59;11.00;;;8.80;;
29940;SDS011;16801;53.562;10.038;2023-10-19T05:16:20;8.43;;;7.37;;
29940;SDS011;16801;53.562;10.038;2023-10-19T05:19:42;7.70;;;6.97;;
29940;SDS011;16801;53.562;10.038;2023-10-19T05:23:03;8.17;;;7.43;;
29940;SDS011;16801;53.562;10.038;2023-10-19T05:26:24;8.17;;;6.00;;
29940;SDS011;16801;53.562;10.038;2023-10-19T05:29:45;9.20;;;6.67;;
29940;SDS011;16801;53.562;10.038;2023-10-19T05:33:06;12.50;;;8.87;;
29940;SDS011;16801;53.562;10.038;2023-10-19T05:36:28;8.83;;;7.83;;
29940;SDS011;16801;53.562;10.038;2023-10-19T05:39:52;7.77;;;6.63;;
29940;SDS011;16801;53.562;10.038;2023-10-19T05:43:13;7.10;;;6.47;;
29940;SDS011;16801;53.562;10.038;2023-10-19T05:46:34;10.47;;;6.77;;
29940;SDS011;16801;53.562;10.038;2023-10-19T05:49:55;7.60;;;6.90;;
29940;SDS011;16801;53.562;10.038;2023-10-19T05:53:17;8.97;;;7.33;;
29940;SDS011;16801;53.562;10.038;2023-10-19T05:56:38;9.87;;;8.10;;
29940;SDS011;16801;53.562;10.038;2023-10-19T05:59:59;9.37;;;7.47;;
29940;SDS011;16801;53.562;10.038;2023-10-19T06:03:20;10.90;;;8.03;;
29940;SDS011;16801;53.562;10.038;2023-10-19T06:06:41;6.50;;;5.90;;
29940;SDS011;16801;53.562;10.038;2023-10-19T06:10:04;9.03;;;7.67;;
29940;SDS011;16801;53.562;10.038;2023-10-19T06:13:25;8.20;;;6.60;;
29940;SDS011;16801;53.562;10.038;2023-10-19T06:16:46;9.83;;;8.83;;
29940;SDS011;16801;53.562;10.038;2023-10-19T06:20:08;7.93;;;6.40;;
29940;SDS011;16801;53.562;10.038;2023-10-19T06:23:39;7.17;;;6.47;;
29940;SDS011;16801;53.562;10.038;2023-10-19T06:27:01;9.80;;;6.90;;
29940;SDS011;16801;53.562;10.038;2023-10-19T06:30:23;8.27;;;7.47;;
29940;SDS011;16801;53.562;10.038;2023-10-19T06:33:45;7.60;;;6.87;;
29940;SDS011;16801;53.562;10.038;2023-10-19T06:37:05;10.73;;;9.73;;
29940;SDS011;16801;53.562;10.038;2023-10-19T06:40:29;11.90;;;7.47;;
29940;SDS011;16801;53.562;10.038;2023-10-19T06:43:52;8.33;;;7.27;;
29940;SDS011;16801;53.562;10.038;2023-10-19T06:47:13;9.37;;;7.30;;
29940;SDS011;16801;53.562;10.038;2023-10-19T06:50:34;10.37;;;7.90;;
29940;SDS011;16801;53.562;10.038;2023-10-19T06:53:55;11.77;;;7.83;;
29940;SDS011;16801;53.562;10.038;2023-10-19T06:57:17;10.13;;;7.77;;
29940;SDS011;16801;53.562;10.038;2023-10-19T07:00:40;9.63;;;8.63;;
29940;SDS011;16801;53.562;10.038;2023-10-19T07:04:02;7.80;;;6.23;;
29940;SDS011;16801;53.562;10.038;2023-10-19T07:07:23;11.17;;;7.23;;
29940;SDS011;16801;53.562;10.038;2023-10-19T07:10:44;10.53;;;7.57;;
29940;SDS011;16801;53.562;10.038;2023-10-19T07:14:06;9.87;;;7.90;;
29940;SDS011;16801;53.562;10.038;2023-10-19T07:17:28;9.07;;;7.67;;
29940;SDS011;16801;53.562;10.038;2023-10-19T07:20:49;9.30;;;6.97;;
29940;SDS011;16801;53.562;10.038;2023-10-19T07:24:11;8.63;;;7.70;;
29940;SDS011;16801;53.562;10.038;2023-10-19T07:27:32;9.77;;;8.63;;
29940;SDS011;16801;53.562;10.038;2023-10-19T07:30:53;8.23;;;7.37;;
29940;SDS011;16801;53.562;10.038;2023-10-19T07:34:16;9.40;;;8.30;;
29940;SDS011;16801;53.562;10.038;2023-10-19T07:37:37;9.10;;;6.53;;
29940;SDS011;16801;53.562;10.038;2023-10-19T07:40:58;7.73;;;6.93;;
29940;SDS011;16801;53.562;10.038;2023-10-19T07:44:20;8.83;;;8.00;;
29940;SDS011;16801;53.562;10.038;2023-10-19T07:47:41;10.50;;;7.90;;
29940;SDS011;16801;53.562;10.038;2023-10-19T07:51:05;9.33;;;7.67;;
29940;SDS011;16801;53.562;10.038;2023-10-19T07:54:27;10.97;;;9.67;;
29940;SDS011;16801;53.562;10.038;2023-10-19T07:57:49;9.13;;;8.13;;
29940;SDS011;16801;53.562;10.038;2023-10-19T08:01:09;10.47;;;8.13;;
29940;SDS011;16801;53.562;10.038;2023-10-19T08:04:32;7.20;;;6.50;;
29940;SDS011;16801;53.562;10.038;2023-10-19T08:07:54;10.30;;;9.23;;
29940;SDS011;16801;53.562;10.038;2023-10-19T08:11:16;9.00;;;8.20;;
29940;SDS011;16801;53.562;10.038;2023-10-19T08:14:37;8.13;;;7.33;;
29940;SDS011;16801;53.562;10.038;2023-10-19T08:17:58;10.17;;;8.87;;
29940;SDS011;16801;53.562;10.038;2023-10-19T08:21:18;9.87;;;7.83;;
29940;SDS011;16801;53.562;10.038;2023-10-19T08:24:42;11.70;;;7.27;;
29940;SDS011;16801;53.562;10.038;2023-10-19T08:28:05;8.67;;;7.87;;
29940;SDS011;16801;53.562;10.038;2023-10-19T08:31:26;10.83;;;8.37;;
29940;SDS011;16801;53.562;10.038;2023-10-19T08:34:47;11.83;;;9.67;;
29940;SDS011;16801;53.562;10.038;2023-10-19T08:38:08;10.90;;;8.93;;
29940;SDS011;16801;53.562;10.038;2023-10-19T08:41:32;9.57;;;8.53;;
29940;SDS011;16801;53.562;10.038;2023-10-19T08:44:53;11.63;;;9.03;;
29940;SDS011;16801;53.562;10.038;2023-10-19T08:48:14;9.70;;;7.30;;
29940;SDS011;16801;53.562;10.038;2023-10-19T08:51:36;9.97;;;9.03;;
29940;SDS011;16801;53.562;10.038;2023-10-19T08:54:58;9.10;;;8.30;;
29940;SDS011;16801;53.562;10.038;2023-10-19T08:58:20;13.50;;;11.63;;
29940;SDS011;16801;53.562;10.038;2023-10-19T09:01:41;11.87;;;10.57;;
29940;SDS011;16801;53.562;10.038;2023-10-19T09:05:05;9.93;;;9.00;;
29940;SDS011;16801;53.562;10.038;2023-10-19T09:08:27;9.67;;;8.57;;
29940;SDS011;16801;53.562;10.038;2023-10-19T09:11:57;11.10;;;9.57;;
29940;SDS011;16801;53.562;10.038;2023-10-19T09:15:22;9.60;;;7.67;;
29940;SDS011;16801;53.562;10.038;2023-10-19T09:18:44;9.03;;;8.00;;
29940;SDS011;16801;53.562;10.038;2023-10-19T09:22:05;8.47;;;7.70;;
29940;SDS011;16801;53.562;10.038;2023-10-19T09:25:35;10.03;;;9.03;;
29940;SDS011;16801;53.562;10.038;2023-10-19T09:28:59;12.33;;;7.80;;
29940;SDS011;16801;53.562;10.038;2023-10-19T09:32:22;10.93;;;8.60;;
29940;SDS011;16801;53.562;10.038;2023-10-19T09:35:44;12.63;;;9.27;;
29940;SDS011;16801;53.562;10.038;2023-10-19T09:39:07;9.23;;;8.20;;
29940;SDS011;16801;53.562;10.038;2023-10-19T09:42:32;13.70;;;9.70;;
29940;SDS011;16801;53.562;10.038;2023-10-19T09:45:53;10.37;;;8.17;;
29940;SDS011;16801;53.562;10.038;2023-10-19T09:49:20;8.97;;;8.00;;
29940;SDS011;16801;53.562;10.038;2023-10-19T09:52:42;9.73;;;8.07;;
29940;SDS011;16801;53.562;10.038;2023-10-19T09:56:03;12.40;;;8.50;;
29940;SDS011;16801;53.562;10.038;2023-10-19T09:59:34;11.43;;;10.30;;
29940;SDS011;16801;53.562;10.038;2023-10-19T10:02:58;10.70;;;9.60;;
29940;SDS011;16801;53.562;10.038;2023-10-19T10:06:29;10.03;;;8.60;;
29940;SDS011;16801;53.562;10.038;2023-10-19T10:10:11;9.20;;;8.13;;
29940;SDS011;16801;53.562;10.038;2023-10-19T10:13:36;9.40;;;8.43;;
29940;SDS011;16801;53.562;10.038;2023-10-19T10:17:00;10.67;;;8.93;;
29940;SDS011;16801;53.562;10.038;2023-10-19T10:20:31;9.67;;;8.63;;
29940;SDS011;16801;53.562;10.038;2023-10-19T10:23:55;11.10;;;9.93;;
29940;SDS011;16801;53.562;10.038;2023-10-19T10:27:18;10.80;;;8.40;;
29940;SDS011;16801;53.562;10.038;2023-10-19T10:34:41;10.77;;;8.77;;
29940;SDS011;16801;53.562;10.038;2023-10-19T10:38:03;11.03;;;8.77;;
29940;SDS011;16801;53.562;10.038;2023-10-19T10:41:26;9.97;;;8.93;;
29940;SDS011;16801;53.562;10.038;2023-10-19T10:44:48;9.87;;;8.87;;
29940;SDS011;16801;53.562;10.038;2023-10-19T10:48:12;8.30;;;7.50;;
29940;SDS011;16801;53.562;10.038;2023-10-19T10:51:33;9.40;;;8.50;;
29940;SDS011;16801;53.562;10.038;2023-10-19T10:54:55;9.00;;;8.20;;
29940;SDS011;16801;53.562;10.038;2023-10-19T10:58:17;7.90;;;7.00;;
29940;SDS011;16801;53.562;10.038;2023-10-19T11:01:39;9.67;;;8.67;;
29940;SDS011;16801;53.562;10.038;2023-10-19T11:05:01;8.30;;;6.87;;
29940;SDS011;16801;53.562;10.038;2023-10-19T11:08:23;8.90;;;7.97;;
29940;SDS011;16801;53.562;10.038;2023-10-19T11:11:45;9.43;;;8.50;;
29940;SDS011;16801;53.562;10.038;2023-10-19T11:15:07;9.73;;;8.73;;
29940;SDS011;16801;53.562;10.038;2023-10-19T11:18:31;8.90;;;7.63;;
29940;SDS011;16801;53.562;10.038;2023-10-19T11:21:54;9.20;;;7.87;;
29940;SDS011;16801;53.562;10.038;2023-10-19T11:25:19;8.47;;;7.67;;
29940;SDS011;16801;53.562;10.038;2023-10-19T11:28:42;11.57;;;8.23;;
29940;SDS011;16801;53.562;10.038;2023-10-19T11:32:11;10.67;;;9.30;;
29940;SDS011;16801;53.562;10.038;2023-10-19T11:35:32;10.00;;;8.80;;
29940;SDS011;16801;53.562;10.038;2023-10-19T11:38:54;8.43;;;7.47;;
29940;SDS011;16801;53.562;10.038;2023-10-19T11:42:16;11.87;;;10.00;;
29940;SDS011;16801;53.562;10.038;2023-10-19T11:45:39;8.93;;;7.00;;
29940;SDS011;16801;53.562;10.038;2023-10-19T11:49:02;7.43;;;6.80;;
29940;SDS011;16801;53.562;10.038;2023-10-19T11:52:24;9.13;;;8.23;;
29940;SDS011;16801;53.562;10.038;2023-10-19T11:55:45;11.10;;;9.87;;
29940;SDS011;16801;53.562;10.038;2023-10-19T11:59:07;11.63;;;9.40;;
29940;SDS011;16801;53.562;10.038;2023-10-19T12:02:28;9.00;;;8.10;;
29940;SDS011;16801;53.562;10.038;2023-10-19T12:05:51;10.23;;;9.27;;
29940;SDS011;16801;53.562;10.038;2023-10-19T12:09:14;10.37;;;8.53;;
29940;SDS011;16801;53.562;10.038;2023-10-19T12:12:35;8.97;;;7.43;;
29940;SDS011;16801;53.562;10.038;2023-10-19T12:15:56;11.20;;;8.53;;
29940;SDS011;16801;53.562;10.038;2023-10-19T12:19:17;9.97;;;8.20;;
29940;SDS011;16801;53.562;10.038;2023-10-19T12:22:39;8.93;;;8.10;;
29940;SDS011;16801;53.562;10.038;2023-10-19T12:26:00;9.07;;;8.27;;
29940;SDS011;16801;53.562;10.038;2023-10-19T12:29:24;9.67;;;8.77;;
29940;SDS011;16801;53.562;10.038;2023-10-19T12:32:45;8.90;;;8.10;;
29940;SDS011;16801;53.562;10.038;2023-10-19T12:36:08;9.97;;;9.03;;
29940;SDS011;16801;53.562;10.038;2023-10-19T12:39:52;8.90;;;8.00;;
29940;SDS011;16801;53.562;10.038;2023-10-19T12:43:14;8.50;;;7.67;;
29940;SDS011;16801;53.562;10.038;2023-10-19T12:46:38;11.37;;;8.03;;
29940;SDS011;16801;53.562;10.038;2023-10-19T12:49:59;9.17;;;7.40;;
29940;SDS011;16801;53.562;10.038;2023-10-19T12:53:20;11.33;;;8.57;;
29940;SDS011;16801;53.562;10.038;2023-10-19T12:56:45;12.20;;;9.53;;
29940;SDS011;16801;53.562;10.038;2023-10-19T13:00:09;10.67;;;8.27;;
29940;SDS011;16801;53.562;10.038;2023-10-19T13:03:45;9.30;;;8.40;;
29940;SDS011;16801;53.562;10.038;2023-10-19T13:07:08;11.17;;;9.23;;
29940;SDS011;16801;53.562;10.038;2023-10-19T13:10:32;9.43;;;8.40;;
29940;SDS011;16801;53.562;10.038;2023-10-19T13:13:56;8.10;;;7.30;;
29940;SDS011;16801;53.562;10.038;2023-10-19T13:17:18;11.53;;;8.87;;
29940;SDS011;16801;53.562;10.038;2023-10-19T13:20:39;10.67;;;8.27;;
29940;SDS011;16801;53.562;10.038;2023-10-19T13:24:03;11.53;;;10.50;;
29940;SDS011;16801;53.562;10.038;2023-10-19T13:27:25;10.97;;;9.33;;
29940;SDS011;16801;53.562;10.038;2023-10-19T13:30:50;11.60;;;8.93;;
29940;SDS011;16801;53.562;10.038;2023-10-19T13:34:12;9.80;;;7.70;;
29940;SDS011;16801;53.562;10.038;2023-10-19T13:37:35;12.03;;;8.53;;
29940;SDS011;16801;53.562;10.038;2023-10-19T13:40:56;9.40;;;8.40;;
29940;SDS011;16801;53.562;10.038;2023-10-19T13:44:17;13.83;;;8.63;;
29940;SDS011;16801;53.562;10.038;2023-10-19T13:47:42;12.50;;;9.70;;
29940;SDS011;16801;53.562;10.038;2023-10-19T13:51:03;9.37;;;8.30;;
29940;SDS011;16801;53.562;10.038;2023-10-19T13:54:31;11.13;;;8.93;;
29940;SDS011;16801;53.562;10.038;2023-10-19T13:57:52;10.57;;;9.67;;
29940;SDS011;16801;53.562;10.038;2023-10-19T14:01:14;12.93;;;10.60;;
29940;SDS011;16801;53.562;10.038;2023-10-19T14:04:38;9.70;;;8.07;;
29940;SDS011;16801;53.562;10.038;2023-10-19T14:07:59;9.97;;;9.07;;
29940;SDS011;16801;53.562;10.038;2023-10-19T14:11:20;7.80;;;6.87;;
29940;SDS011;16801;53.562;10.038;2023-10-19T14:14:41;9.07;;;8.17;;
29940;SDS011;16801;53.562;10.038;2023-10-19T14:18:02;10.40;;;9.00;;
29940;SDS011;16801;53.562;10.038;2023-10-19T14:21:24;13.43;;;8.23;;
29940;SDS011;16801;53.562;10.038;2023-10-19T14:24:46;10.10;;;9.03;;
29940;SDS011;16801;53.562;10.038;2023-10-19T14:28:06;10.37;;;9.43;;
29940;SDS011;16801;53.562;10.038;2023-10-19T14:31:29;9.63;;;7.83;;
29940;SDS011;16801;53.562;10.038;2023-10-19T14:34:50;9.97;;;8.97;;
29940;SDS011;16801;53.562;10.038;2023-10-19T14:38:13;10.80;;;8.67;;
29940;SDS011;16801;53.562;10.038;2023-10-19T14:41:34;10.83;;;8.90;;
29940;SDS011;16801;53.562;10.038;2023-10-19T14:44:55;10.60;;;8.83;;
29940;SDS011;16801;53.562;10.038;2023-10-19T14:48:16;9.93;;;8.93;;
29940;SDS011;16801;53.562;10.038;2023-10-19T14:51:38;10.10;;;7.77;;
29940;SDS011;16801;53.562;10.038;2023-10-19T14:55:02;10.60;;;9.10;;
29940;SDS011;16801;53.562;10.038;2023-10-19T14:58:25;12.87;;;9.90;;
29940;SDS011;16801;53.562;10.038;2023-10-19T15:01:48;9.67;;;8.53;;
29940;SDS011;16801;53.562;10.038;2023-10-19T15:05:09;11.83;;;9.60;;
29940;SDS011;16801;53.562;10.038;2023-10-19T15:08:32;11.10;;;9.90;;
29940;SDS011;16801;53.562;10.038;2023-10-19T15:11:54;11.23;;;10.23;;
29940;SDS011;16801;53.562;10.038;2023-10-19T15:15:15;11.23;;;10.03;;
29940;SDS011;16801;53.562;10.038;2023-10-19T15:18:36;10.63;;;8.03;;
29940;SDS011;16801;53.562;10.038;2023-10-19T15:21:58;14.20;;;10.23;;
29940;SDS011;16801;53.562;10.038;2023-10-19T15:25:19;13.47;;;10.07;;
29940;SDS011;16801;53.562;10.038;2023-10-19T15:28:44;12.73;;;9.90;;
29940;SDS011;16801;53.562;10.038;2023-10-19T15:32:05;11.13;;;10.03;;
29940;SDS011;16801;53.562;10.038;2023-10-19T15:35:26;11.83;;;10.67;;
29940;SDS011;16801;53.562;10.038;2023-10-19T15:38:47;17.67;;;10.13;;
29940;SDS011;16801;53.562;10.038;2023-10-19T15:42:10;10.93;;;9.70;;
29940;SDS011;16801;53.562;10.038;2023-10-19T15:45:32;12.03;;;10.37;;
29940;SDS011;16801;53.562;10.038;2023-10-19T15:48:57;11.27;;;9.53;;
29940;SDS011;16801;53.562;10.038;2023-10-19T15:52:18;16.10;;;11.40;;
29940;SDS011;16801;53.562;10.038;2023-10-19T15:55:40;17.13;;;11.70;;
29940;SDS011;16801;53.562;10.038;2023-10-19T15:59:01;12.43;;;10.97;;
29940;SDS011;16801;53.562;10.038;2023-10-19T16:02:23;11.67;;;9.97;;
29940;SDS011;16801;53.562;10.038;2023-10-19T16:05:44;11.83;;;10.63;;
29940;SDS011;16801;53.562;10.038;2023-10-19T16:09:05;14.03;;;10.93;;
29940;SDS011;16801;53.562;10.038;2023-10-19T16:12:26;14.10;;;12.63;;
29940;SDS011;16801;53.562;10.038;2023-10-19T16:15:47;12.90;;;10.57;;
29940;SDS011;16801;53.562;10.038;2023-10-19T16:19:10;12.27;;;11.07;;
29940;SDS011;16801;53.562;10.038;2023-10-19T16:22:31;11.83;;;10.67;;
29940;SDS011;16801;53.562;10.038;2023-10-19T16:25:57;13.37;;;11.97;;
29940;SDS011;16801;53.562;10.038;2023-10-19T16:29:18;13.07;;;11.23;;
29940;SDS011;16801;53.562;10.038;2023-10-19T16:32:42;12.43;;;11.17;;
29940;SDS011;16801;53.562;10.038;2023-10-19T16:36:04;12.13;;;10.63;;
29940;SDS011;16801;53.562;10.038;2023-10-19T16:39:25;10.57;;;9.43;;
29940;SDS011;16801;53.562;10.038;2023-10-19T16:42:46;12.63;;;11.33;;
29940;SDS011;16801;53.562;10.038;2023-10-19T16:46:07;12.30;;;10.50;;
29940;SDS011;16801;53.562;10.038;2023-10-19T16:49:28;12.10;;;10.73;;
29940;SDS011;16801;53.562;10.038;2023-10-19T16:52:55;12.00;;;10.67;;
29940;SDS011;16801;53.562;10.038;2023-10-19T16:56:16;11.40;;;9.53;;
29940;SDS011;16801;53.562;10.038;2023-10-19T16:59:37;10.13;;;9.07;;
29940;SDS011;16801;53.562;10.038;2023-10-19T17:02:59;11.53;;;10.40;;
29940;SDS011;16801;53.562;10.038;2023-10-19T17:06:20;14.40;;;10.23;;
29940;SDS011;16801;53.562;10.038;2023-10-19T17:09:43;11.27;;;9.37;;
29940;SDS011;16801;53.562;10.038;2023-10-19T17:13:04;11.90;;;10.67;;
29940;SDS011;16801;53.562;10.038;2023-10-19T17:16:25;10.73;;;8.40;;
29940;SDS011;16801;53.562;10.038;2023-10-19T17:19:46;10.77;;;9.73;;
29940;SDS011;16801;53.562;10.038;2023-10-19T17:23:07;9.27;;;8.40;;
29940;SDS011;16801;53.562;10.038;2023-10-19T17:26:29;10.60;;;9.63;;
29940;SDS011;16801;53.562;10.038;2023-10-19T17:29:50;10.60;;;9.57;;
29940;SDS011;16801;53.562;10.038;2023-10-19T17:33:11;8.50;;;7.70;;
29940;SDS011;16801;53.562;10.038;2023-10-19T17:36:34;11.03;;;8.30;;
29940;SDS011;16801;53.562;10.038;2023-10-19T17:39:56;11.40;;;10.23;;
29940;SDS011;16801;53.562;10.038;2023-10-19T17:43:18;10.63;;;8.30;;
29940;SDS011;16801;53.562;10.038;2023-10-19T17:46:39;9.50;;;8.27;;
29940;SDS011;16801;53.562;10.038;2023-10-19T17:50:00;10.07;;;9.10;;
29940;SDS011;16801;53.562;10.038;2023-10-19T17:53:22;9.87;;;8.57;;
29940;SDS011;16801;53.562;10.038;2023-10-19T17:56:43;9.70;;;8.63;;
29940;SDS011;16801;53.562;10.038;2023-10-19T18:00:05;8.97;;;8.10;;
29940;SDS011;16801;53.562;10.038;2023-10-19T18:03:31;9.23;;;8.33;;
29940;SDS011;16801;53.562;10.038;2023-10-19T18:06:52;9.97;;;8.97;;
29940;SDS011;16801;53.562;10.038;2023-10-19T18:10:13;9.77;;;8.87;;
29940;SDS011;16801;53.562;10.038;2023-10-19T18:13:35;9.07;;;8.13;;
29940;SDS011;16801;53.562;10.038;2023-10-19T18:16:57;10.63;;;8.67;;
29940;SDS011;16801;53.562;10.038;2023-10-19T18:20:19;10.07;;;9.07;;
29940;SDS011;16801;53.562;10.038;2023-10-19T18:23:41;8.67;;;7.73;;
29940;SDS011;16801;53.562;10.038;2023-10-19T18:27:04;10.30;;;8.57;;
29940;SDS011;16801;53.562;10.038;2023-10-19T18:30:25;9.17;;;8.37;;
29940;SDS011;16801;53.562;10.038;2023-10-19T18:33:49;8.57;;;7.77;;
29940;SDS011;16801;53.562;10.038;2023-10-19T18:37:10;8.37;;;7.73;;
29940;SDS011;16801;53.562;10.038;2023-10-19T18:40:31;8.73;;;7.93;;
29940;SDS011;16801;53.562;10.038;2023-10-19T18:43:55;9.10;;;8.03;;
29940;SDS011;16801;53.562;10.038;2023-10-19T18:47:17;8.30;;;7.50;;
29940;SDS011;16801;53.562;10.038;2023-10-19T18:50:40;9.43;;;8.50;;
29940;SDS011;16801;53.562;10.038;2023-10-19T18:54:01;9.33;;;8.20;;
29940;SDS011;16801;53.562;10.038;2023-10-19T18:57:25;10.20;;;8.53;;
29940;SDS011;16801;53.562;10.038;2023-10-19T19:00:50;8.77;;;7.97;;
29940;SDS011;16801;53.562;10.038;2023-10-19T19:04:12;8.83;;;7.97;;
29940;SDS011;16801;53.562;10.038;2023-10-19T19:07:37;8.07;;;6.60;;
29940;SDS011;16801;53.562;10.038;2023-10-19T19:10:58;8.93;;;7.30;;
29940;SDS011;16801;53.562;10.038;2023-10-19T19:14:20;9.57;;;7.20;;
29940;SDS011;16801;53.562;10.038;2023-10-19T19:17:41;8.63;;;7.77;;
29940;SDS011;16801;53.562;10.038;2023-10-19T19:21:02;7.20;;;6.50;;
29940;SDS011;16801;53.562;10.038;2023-10-19T19:24:28;7.87;;;6.80;;
29940;SDS011;16801;53.562;10.038;2023-10-19T19:27:51;8.33;;;7.57;;
29940;SDS011;16801;53.562;10.038;2023-10-19T19:31:12;7.70;;;6.97;;
29940;SDS011;16801;53.562;10.038;2023-10-19T19:34:34;7.97;;;7.17;;
29940;SDS011;16801;53.562;10.038;2023-10-19T19:37:55;7.80;;;7.00;;
29940;SDS011;16801;53.562;10.038;2023-10-19T19:41:18;8.43;;;7.63;;
29940;SDS011;16801;53.562;10.038;2023-10-19T19:44:38;7.73;;;6.93;;
29940;SDS011;16801;53.562;10.038;2023-10-19T19:48:00;10.13;;;8.73;;
29940;SDS011;16801;53.562;10.038;2023-10-19T19:51:21;8.40;;;7.60;;
29940;SDS011;16801;53.562;10.038;2023-10-19T19:54:42;8.07;;;6.90;;
29940;SDS011;16801;53.562;10.038;2023-10-19T19:58:04;7.83;;;7.13;;